Latest Weather Observations for Mawson*

IDT60801

Issued at 7:31 am EDT Friday 19 December 2014 (issued every 30 minutes, with the page automatically refreshed every 10 minutes)

About weather observations | Map of weather stations | Latest weather observations for ANT | Other Formats
Station Details ID: 300001 Name: MAWSON Lat: -67.60 Lon: 62.88 Height: 9.9 m
Data from the previous 72 hours. | See also: Recent months at Mawson*
Date/Time
EDT
Temp
°C
App
Temp
°C
Dew
Point
Rel
Hum
%
Delta-T
°C
Wind Press
QNH
hPa
Press
MSL
hPa
Rain
since 9 am
mm
Dir
 
Spd
km/h
Gust
km/h
Spd
kts
Gust
kts
19/07:30am -0.1 -8.6 -7.4 58 - E 30 35 16 19 980.7 - -
19/07:00am 0.0 -7.4 -7.7 56 - E 24 33 13 18 981.0 - -
19/06:30am 0.0 -8.6 -7.5 57 - E 30 35 16 19 980.9 - -
19/06:00am 0.3 -7.5 -7.9 54 - E 26 35 14 19 980.8 - -
19/05:30am 0.1 -7.6 -6.5 61 - E 26 32 14 17 980.8 - -
19/05:00am 0.2 -5.3 -5.6 65 - E 15 20 8 11 980.6 980.7 -
19/04:30am 0.2 -5.7 -6.0 63 - E 17 22 9 12 980.5 - -
19/04:00am 0.2 -7.4 -5.6 65 - E 26 30 14 16 980.4 - -
19/03:30am 0.8 -7.2 -5.6 62 - E 28 33 15 18 980.1 - -
19/03:00am 1.3 -6.7 -5.8 59 - E 28 37 15 20 979.9 - -
19/02:30am 1.6 -6.4 -6.2 56 - E 28 35 15 19 979.8 - -
19/02:00am 1.9 -6.9 -6.4 54 - ESE 32 37 17 20 979.8 979.9 -
19/01:30am 2.2 -7.2 -6.9 51 - ESE 35 43 19 23 979.8 - -
19/01:00am 2.1 -6.7 -6.2 54 - E 32 41 17 22 980.0 - -
19/12:30am 2.3 -7.9 -7.0 50 - ESE 39 52 21 28 979.8 - -
19/12:00am 2.1 -5.9 -5.5 57 - E 28 52 15 28 980.1 - -
 
Date/Time
EDT
Temp
°C
App
Temp
°C
Dew
Point
Rel
Hum
%
Delta-T
°C
Wind Press
QNH
hPa
Press
MSL
hPa
Rain
since 9 am
mm
Dir
 
Spd
km/h
Gust
km/h
Spd
kts
Gust
kts
18/11:59pm 1.9 -6.1 -6.2 55 - E 28 52 15 28 980.1 - -
18/11:30pm 1.5 -7.1 -4.3 65 - E 32 39 17 21 980.2 - -
18/11:00pm 0.8 -4.9 -3.5 73 - NE 17 22 9 12 980.3 980.4 -
18/10:30pm 1.1 -8.1 -4.7 65 - E 35 46 19 25 980.1 - -
18/10:00pm 1.3 -8.7 -4.7 64 - E 39 52 21 28 980.1 - -
18/09:30pm 2.2 -5.8 -5.9 55 - E 28 39 15 21 980.0 - -
18/09:00pm 2.2 -7.2 -6.1 54 - E 35 44 19 24 979.9 - -
18/08:30pm 1.9 -6.5 -5.9 56 - E 30 37 16 20 979.9 - -
18/08:00pm 2.0 -7.0 -6.6 53 - E 33 46 18 25 980.0 980.1 -
18/07:34pm 1.8 -8.1 -7.8 49 - E 37 57 20 31 979.9 - -
18/07:30pm 2.1 -6.9 -6.7 52 - E 33 43 18 23 980.2 - -
18/07:00pm 2.1 -6.9 -6.2 54 - E 33 48 18 26 980.1 - -
18/06:57pm 2.2 -7.2 -6.4 53 - E 35 54 19 29 980.2 - -
18/06:30pm 1.9 -9.6 -6.6 53 - E 46 61 25 33 980.0 - -
18/06:00pm 1.7 -10.2 -6.8 53 - ESE 48 56 26 30 979.9 - -
18/05:32pm 1.5 -8.3 -7.0 53 - ESE 37 56 20 30 980.2 - -
18/05:30pm 1.6 -7.8 -6.9 53 - ESE 35 52 19 28 980.2 - -
18/05:00pm 1.3 -7.6 -7.5 52 - ESE 32 39 17 21 980.4 980.5 -
18/04:30pm 0.8 -8.7 -7.7 53 - ESE 35 48 19 26 980.5 - -
18/04:00pm 0.6 -9.8 -8.9 49 - ESE 39 57 21 31 980.5 - -
18/03:30pm 0.3 -11.0 -8.4 52 - SE 44 56 24 30 980.4 - -
18/03:00pm 0.1 -12.4 -8.8 51 - SE 50 61 27 33 980.5 - -
18/02:30pm -0.4 -12.4 -8.1 56 - SE 48 63 26 34 980.5 - -
18/02:00pm -0.8 -13.3 -8.9 54 - SE 50 61 27 33 980.6 980.7 -
18/01:33pm -1.1 -13.6 -9.9 51 - SE 50 69 27 37 980.4 - -
18/01:30pm -1.1 -14.0 -9.9 51 - SE 52 69 28 37 980.5 - -
18/01:00pm -1.2 -14.5 -10.3 50 - SE 54 69 29 37 980.4 - -
18/12:39pm -1.7 -15.4 -9.5 55 - SE 56 74 30 40 980.4 - -
18/12:30pm -1.8 -15.4 -9.2 57 - SE 56 72 30 39 980.4 - -
18/12:27pm -1.8 -15.1 -9.4 56 - ESE 54 72 29 39 980.4 - -
18/12:00pm -2.2 -17.2 -9.1 59 - SE 63 76 34 41 980.3 - -
18/11:30am -2.4 -17.8 -9.5 58 - SE 65 80 35 43 980.3 - -
18/11:14am -2.3 -18.1 -10.3 54 - SE 67 85 36 46 979.9 - -
18/11:00am -2.3 -18.1 -10.3 54 - SE 67 80 36 43 979.9 980.0 -
18/10:30am -2.3 -18.5 -9.9 56 - SE 69 82 37 44 979.9 - -
18/10:00am -2.3 -18.5 -10.1 55 - SE 69 83 37 45 979.9 - -
18/09:30am -2.1 -19.2 -10.1 54 - SE 74 85 40 46 979.4 - -
18/09:00am -2.2 -18.5 -9.8 56 - SE 70 83 38 45 979.6 - -
18/08:30am -2.3 -18.6 -9.6 57 - SE 70 85 38 46 979.8 - -
18/08:00am -2.3 -18.6 -9.0 60 - SE 70 83 38 45 979.8 979.9 -
18/07:30am -2.1 -18.2 -9.0 59 - ESE 69 83 37 45 980.1 - -
18/07:17am -2.2 -17.1 -8.9 60 - ESE 63 82 34 44 980.1 - -
18/07:00am -2.1 -18.2 -9.2 58 - SE 69 85 37 46 979.9 - -
18/06:54am -2.0 -17.3 -9.1 58 - ESE 65 85 35 46 979.9 - -
18/06:52am -1.8 -18.5 -9.6 55 - ESE 72 85 39 46 979.7 - -
18/06:49am -2.0 -14.1 -8.9 59 - ESE 48 69 26 37 979.9 - -
18/06:48am -2.1 -13.8 -8.8 60 - ESE 46 54 25 29 979.9 - -
18/06:41am -2.2 -18.3 -8.7 61 - ESE 69 87 37 47 979.8 - -
18/06:30am -1.9 -18.0 -9.0 58 - ESE 69 82 37 44 979.4 - -
18/06:09am -2.2 -17.8 -8.3 63 - ESE 67 85 36 46 979.7 - -
18/06:00am -1.9 -17.9 -8.4 61 - ESE 69 85 37 46 979.5 - -
18/05:39am -1.8 -17.1 -8.5 60 - ESE 65 83 35 45 979.6 - -
18/05:30am -1.9 -17.9 -8.2 62 - ESE 69 82 37 44 979.8 - -
18/05:00am -1.8 -18.0 -7.9 63 - ESE 70 83 38 45 979.4 979.5 -
18/04:42am -1.4 -16.7 -8.1 60 - ESE 65 83 35 45 979.2 - -
18/04:30am -1.6 -17.5 -7.3 65 - SE 69 80 37 43 979.4 - -
18/04:00am -1.2 -16.0 -7.3 63 - ESE 63 85 34 46 979.3 - -
18/03:33am -1.1 -17.2 -6.8 65 - ESE 70 89 38 48 979.1 - -
18/03:30am -1.2 -17.2 -6.3 68 - ESE 70 87 38 47 978.9 - -
18/03:00am -1.2 -17.0 -6.0 70 - SE 69 85 37 46 978.9 - -
18/02:52am -1.2 -18.3 -6.0 70 - SE 76 95 41 51 979.0 - -
18/02:50am -1.2 -19.1 -6.0 70 - SE 80 95 43 51 978.7 - -
18/02:30am -1.1 -14.6 -5.9 70 - ESE 57 78 31 42 979.6 - -
18/02:02am -1.1 -16.1 -5.3 73 - SE 65 83 35 45 979.4 - -
18/02:00am -1.1 -16.1 -5.5 72 - SE 65 82 35 44 979.3 979.4 -
18/01:39am -0.9 -14.3 -5.1 73 - ESE 57 78 31 42 979.4 - -
18/01:30am -1.0 -15.2 -4.9 75 - ESE 61 74 33 40 979.6 - -
18/01:00am -0.7 -14.1 -5.1 72 - ESE 57 78 31 42 979.7 - -
18/12:42am -0.6 -14.0 -4.8 73 - ESE 57 78 31 42 979.8 - -
18/12:30am -0.7 -15.2 -4.7 74 - SE 63 74 34 40 979.8 - -
18/12:12am -0.6 -14.8 -5.2 71 - ESE 61 80 33 43 979.6 - -
18/12:00am -0.5 -13.7 -4.9 72 - ESE 56 65 30 35 979.8 - -
 
Date/Time
EDT
Temp
°C
App
Temp
°C
Dew
Point
Rel
Hum
%
Delta-T
°C
Wind Press
QNH
hPa
Press
MSL
hPa
Rain
since 9 am
mm
Dir
 
Spd
km/h
Gust
km/h
Spd
kts
Gust
kts
17/11:30pm -0.1 -12.6 -5.5 67 - ESE 52 72 28 39 979.7 - -
17/11:16pm 0.3 -12.7 -6.1 62 - ESE 54 72 29 39 979.5 - -
17/11:00pm 0.5 -11.4 -6.6 59 - ESE 48 63 26 34 979.6 979.7 -
17/10:50pm 0.5 -10.6 -6.3 60 - ESE 44 70 24 38 979.9 - -
17/10:30pm 0.8 -10.7 -6.7 57 - ESE 46 57 25 31 979.7 - -
17/10:00pm 1.0 -10.6 -7.5 53 - ESE 46 65 25 35 979.6 - -
17/09:30pm 1.0 -12.1 -7.0 55 - ESE 54 72 29 39 979.4 - -
17/09:00pm 0.8 -12.3 -7.0 56 - ESE 54 74 29 40 979.4 - -
17/08:33pm 0.6 -12.4 -6.5 59 - ESE 54 72 29 39 979.4 - -
17/08:30pm 0.5 -13.0 -6.1 61 - ESE 57 72 31 39 979.4 - -
17/08:09pm 0.7 -11.6 -6.6 58 - ESE 50 76 27 41 979.2 - -
17/08:00pm 0.7 -11.5 -6.4 59 - ESE 50 63 27 34 979.5 979.6 -
17/07:30pm 0.3 -11.2 -6.3 61 - ESE 46 63 25 34 979.8 - -
17/07:01pm 0.2 -12.4 -6.2 62 - ESE 52 70 28 38 979.9 - -
17/07:00pm 0.2 -12.8 -6.2 62 - ESE 54 70 29 38 979.9 - -
17/06:42pm -0.1 -13.5 -6.1 64 - ESE 56 76 30 41 979.6 - -
17/06:30pm -0.1 -13.6 -5.7 66 - ESE 57 69 31 37 979.8 - -
17/06:00pm 0.2 -13.2 -6.8 59 - SE 56 70 30 38 979.7 - -
17/05:30pm -0.1 -14.1 -6.9 60 - ESE 59 70 32 38 980.0 - -
17/05:00pm 0.0 -14.0 -6.8 60 - SE 59 72 32 39 979.8 979.9 -
17/04:49pm -0.1 -13.7 -6.9 60 - ESE 57 76 31 41 979.7 - -
17/04:30pm -0.3 -14.4 -7.8 57 - ESE 59 74 32 40 979.7 - -
17/04:00pm -0.3 -14.8 -8.0 56 - SE 61 70 33 38 979.8 - -
17/03:30pm -0.6 -15.1 -8.0 57 - SE 61 70 33 38 979.6 - -
17/03:00pm -1.0 -14.8 -9.1 54 - SE 57 72 31 39 979.7 - -
17/02:30pm -1.3 -15.5 -9.4 54 - SE 59 72 32 39 979.7 - -
17/02:00pm -1.5 -16.6 -10.5 50 - SE 63 78 34 42 979.9 980.0 -
17/01:30pm -1.3 -16.1 -12.0 44 - SE 61 74 33 40 980.0 - -
17/01:15pm -1.3 -16.4 -11.4 46 - SE 63 82 34 44 979.9 - -
17/01:00pm -1.3 -16.8 -11.7 45 - SE 65 80 35 43 980.0 - -
17/12:30pm -1.7 -18.0 -11.5 47 - SE 69 89 37 48 980.2 - -
17/12:09pm -1.5 -17.4 -12.4 43 - SE 67 85 36 46 980.3 - -
17/12:00pm -2.0 -17.9 -11.3 49 - SE 67 82 36 44 980.4 - -
17/11:30am -1.6 -17.9 -12.5 43 - SE 69 89 37 48 980.3 - -
17/11:00am -1.8 -18.1 -12.4 44 - SE 69 87 37 47 980.3 980.4 -
17/10:34am -1.5 -17.1 -13.6 39 - SE 65 83 35 45 980.2 - -
17/10:30am -2.0 -18.0 -12.9 43 - SE 67 80 36 43 980.5 - -
17/10:12am -1.9 -17.5 -12.5 44 - SE 65 83 35 45 980.6 - -
17/10:00am -1.7 -17.7 -12.9 42 - SE 67 80 36 43 980.5 - -
17/09:48am -1.6 -18.0 -13.1 41 - SE 69 87 37 47 980.6 - -
17/09:30am -1.6 -17.6 -12.8 42 - SE 67 83 36 45 980.6 - -
17/09:02am -1.5 -17.5 -12.7 42 - SE 67 89 36 48 980.5 - -
17/09:00am -1.3 -16.9 -13.1 40 - SE 65 78 35 42 980.6 - -
17/08:34am -1.1 -17.7 -12.9 40 - SE 70 89 38 48 980.6 - -
17/08:30am -1.3 -18.2 -12.5 42 - SE 72 87 39 47 980.7 - -
17/08:02am -1.2 -17.7 -12.7 41 - SE 70 89 38 48 980.7 - -
17/08:00am -1.2 -18.1 -13.0 40 - SE 72 89 39 48 980.8 980.9 -
17/07:30am -1.4 -17.7 -12.0 44 - SE 69 89 37 48 980.8 - -
17/07:16am -1.2 -17.5 -12.1 43 - SE 69 87 37 47 980.6 - -
17/07:00am -1.4 -17.7 -12.0 44 - SE 69 85 37 46 980.8 - -
17/06:30am -1.7 -17.2 -11.8 46 - SE 65 76 35 41 981.0 - -
17/06:00am -2.0 -16.7 -10.8 51 - SE 61 76 33 41 981.1 - -
17/05:30am -1.7 -16.4 -10.5 51 - SE 61 72 33 39 981.1 - -
17/05:00am -1.5 -14.8 -9.8 53 - SE 54 72 29 39 981.4 981.5 -
17/04:30am -1.2 -15.4 -9.5 53 - SE 59 74 32 40 981.3 - -
17/04:08am -1.0 -16.0 -9.3 53 - SE 63 85 34 46 981.3 - -
17/04:00am -1.0 -16.4 -9.3 53 - SE 65 78 35 42 981.3 - -
17/03:30am -0.7 -14.9 -9.1 53 - SE 59 74 32 40 981.0 - -
17/03:00am -0.7 -15.6 -8.8 54 - SE 63 78 34 42 981.2 - -
17/02:30am -0.6 -15.5 -8.3 56 - SE 63 76 34 41 981.3 - -
17/02:00am -0.3 -15.1 -7.5 58 - SE 63 80 34 43 981.3 981.4 -
17/01:30am -0.1 -14.9 -7.8 56 - SE 63 74 34 40 981.2 - -
17/01:00am -0.1 -14.5 -7.1 59 - SE 61 76 33 41 981.3 - -
17/12:30am 0.1 -15.0 -6.9 59 - SE 65 78 35 42 981.2 - -
17/12:00am 0.3 -14.9 -7.2 57 - SE 65 80 35 43 981.1 - -
 
Date/Time
EDT
Temp
°C
App
Temp
°C
Dew
Point
Rel
Hum
%
Delta-T
°C
Wind Press
QNH
hPa
Press
MSL
hPa
Rain
since 9 am
mm
Dir
 
Spd
km/h
Gust
km/h
Spd
kts
Gust
kts
16/11:46pm 0.3 -15.3 -7.7 55 - SE 67 85 36 46 981.1 - -
16/11:30pm 0.3 -15.6 -7.0 58 - SE 69 80 37 43 981.1 - -
16/11:00pm 0.4 -15.7 -6.7 59 - SE 70 83 38 45 980.9 981.0 -
16/10:46pm 0.4 -16.0 -6.2 61 - SE 72 91 39 49 980.7 - -
16/10:30pm 0.5 -16.3 -6.1 61 - SE 74 87 40 47 980.6 - -
16/10:00pm 0.4 -16.8 -6.7 59 - SE 76 91 41 49 980.5 - -
16/09:30pm 0.6 -17.0 -6.5 59 - SE 78 98 42 53 980.5 - -
16/09:24pm 0.5 -17.1 -6.3 60 - SE 78 98 42 53 980.7 - -
16/09:00pm 0.7 -16.9 -6.4 59 - SE 78 93 42 50 980.7 - -
16/08:50pm 0.8 -16.0 -6.5 58 - SE 74 93 40 50 980.6 - -
16/08:30pm 0.7 -16.1 -6.2 60 - SE 74 91 40 49 980.8 - -
16/08:00pm 0.7 -17.3 -6.8 57 - SE 80 96 43 52 980.7 980.8 -
16/07:57pm 0.8 -16.8 -7.0 56 - SE 78 96 42 52 980.6 - -
16/07:30pm 0.7 -16.5 -6.4 59 - SE 76 93 41 50 980.7 - -
16/07:00pm 0.6 -17.4 -6.9 57 - SE 80 98 43 53 980.6 - -
16/06:30pm 0.6 -17.5 -7.6 54 - SE 80 102 43 55 980.7 - -
16/06:04pm 0.4 -17.7 -7.6 55 - SE 80 98 43 53 980.6 - -
16/06:00pm 0.4 -17.3 -7.3 56 - SE 78 95 42 51 980.8 - -
16/05:30pm 0.3 -17.8 -8.4 52 - SE 80 100 43 54 980.8 - -
16/05:00pm -0.1 -18.9 -10.3 46 - SE 83 106 45 57 980.5 980.6 -
16/04:30pm -0.3 -18.6 -10.0 48 - SE 80 100 43 54 980.4 - -
16/04:00pm -0.3 -20.0 -11.0 44 - SE 87 109 47 59 980.5 - -
16/03:30pm -0.5 -20.1 -9.9 49 - SE 87 111 47 60 980.6 - -
16/03:04pm -0.1 -19.0 -10.6 45 - SE 83 102 45 55 980.8 - -
16/03:00pm -0.1 -19.3 -10.3 46 - SE 85 102 46 55 980.8 - -
16/02:30pm -0.3 -20.3 -11.0 44 - SE 89 109 48 59 980.6 - -
16/02:00pm -0.7 -21.1 -10.6 47 - SE 91 111 49 60 980.6 980.7 -
16/01:31pm -0.8 -21.2 -11.2 45 - SE 91 111 49 60 980.6 - -
16/01:30pm -0.8 -21.3 -11.5 44 - SE 91 107 49 58 980.5 - -
16/01:00pm -0.9 -21.7 -11.6 44 - SE 93 115 50 62 980.5 - -

Other Formats:

Comma delimited format used in spreadsheet applications
http://www.bom.gov.au/fwo/IDT60803/IDT60803.89564.axf

JavaScript Object Notation format (JSON) in row-major order
http://www.bom.gov.au/fwo/IDT60803/IDT60803.89564.json